sensor_id;sensor_type;location;lat;lon;timestamp;P1;durP1;ratioP1;P2;durP2;ratioP2
64031;SDS011;50278;47.796;11.968;2022-08-21T00:01:44;0.50;;;0.25;;
64031;SDS011;50278;47.796;11.968;2022-08-21T00:04:10;0.80;;;0.50;;
64031;SDS011;50278;47.796;11.968;2022-08-21T00:06:37;0.75;;;0.63;;
64031;SDS011;50278;47.796;11.968;2022-08-21T00:09:03;1.15;;;0.50;;
64031;SDS011;50278;47.796;11.968;2022-08-21T00:11:31;0.70;;;0.40;;
64031;SDS011;50278;47.796;11.968;2022-08-21T00:13:56;0.43;;;0.38;;
64031;SDS011;50278;47.796;11.968;2022-08-21T00:16:22;3.92;;;0.52;;
64031;SDS011;50278;47.796;11.968;2022-08-21T00:18:48;0.95;;;0.55;;
64031;SDS011;50278;47.796;11.968;2022-08-21T00:21:15;0.22;;;0.22;;
64031;SDS011;50278;47.796;11.968;2022-08-21T00:23:41;0.70;;;0.40;;
64031;SDS011;50278;47.796;11.968;2022-08-21T00:26:06;0.88;;;0.38;;
64031;SDS011;50278;47.796;11.968;2022-08-21T00:28:32;1.17;;;0.50;;
64031;SDS011;50278;47.796;11.968;2022-08-21T00:30:58;1.77;;;0.40;;
64031;SDS011;50278;47.796;11.968;2022-08-21T00:33:25;0.55;;;0.28;;
64031;SDS011;50278;47.796;11.968;2022-08-21T00:35:51;1.65;;;0.60;;
64031;SDS011;50278;47.796;11.968;2022-08-21T00:38:17;1.10;;;0.38;;
64031;SDS011;50278;47.796;11.968;2022-08-21T00:43:15;0.70;;;0.40;;
64031;SDS011;50278;47.796;11.968;2022-08-21T00:45:43;0.82;;;0.32;;
64031;SDS011;50278;47.796;11.968;2022-08-21T00:48:09;2.30;;;0.43;;
64031;SDS011;50278;47.796;11.968;2022-08-21T00:50:35;0.65;;;0.30;;
64031;SDS011;50278;47.796;11.968;2022-08-21T00:53:05;0.70;;;0.40;;
64031;SDS011;50278;47.796;11.968;2022-08-21T00:55:31;0.50;;;0.40;;
64031;SDS011;50278;47.796;11.968;2022-08-21T00:57:59;0.60;;;0.30;;
64031;SDS011;50278;47.796;11.968;2022-08-21T01:00:28;0.90;;;0.38;;
64031;SDS011;50278;47.796;11.968;2022-08-21T01:02:56;1.73;;;0.30;;
64031;SDS011;50278;47.796;11.968;2022-08-21T01:05:23;0.60;;;0.40;;
64031;SDS011;50278;47.796;11.968;2022-08-21T01:07:49;0.70;;;0.40;;
64031;SDS011;50278;47.796;11.968;2022-08-21T01:10:15;0.30;;;0.20;;
64031;SDS011;50278;47.796;11.968;2022-08-21T01:12:41;1.38;;;0.25;;
64031;SDS011;50278;47.796;11.968;2022-08-21T01:15:07;0.47;;;0.30;;
64031;SDS011;50278;47.796;11.968;2022-08-21T01:17:35;0.50;;;0.30;;
64031;SDS011;50278;47.796;11.968;2022-08-21T01:20:04;1.10;;;0.52;;
64031;SDS011;50278;47.796;11.968;2022-08-21T01:22:32;0.50;;;0.20;;
64031;SDS011;50278;47.796;11.968;2022-08-21T01:24:58;0.70;;;0.40;;
64031;SDS011;50278;47.796;11.968;2022-08-21T01:27:24;1.42;;;0.50;;
64031;SDS011;50278;47.796;11.968;2022-08-21T01:30:00;2.80;;;0.68;;
64031;SDS011;50278;47.796;11.968;2022-08-21T01:32:33;3.67;;;1.48;;
64031;SDS011;50278;47.796;11.968;2022-08-21T01:34:59;0.35;;;0.30;;
64031;SDS011;50278;47.796;11.968;2022-08-21T01:37:24;0.47;;;0.20;;
64031;SDS011;50278;47.796;11.968;2022-08-21T01:39:50;0.38;;;0.20;;
64031;SDS011;50278;47.796;11.968;2022-08-21T01:42:16;0.60;;;0.38;;
64031;SDS011;50278;47.796;11.968;2022-08-21T01:44:41;2.00;;;0.40;;
64031;SDS011;50278;47.796;11.968;2022-08-21T01:47:09;0.57;;;0.30;;
64031;SDS011;50278;47.796;11.968;2022-08-21T01:49:36;1.98;;;0.47;;
64031;SDS011;50278;47.796;11.968;2022-08-21T01:52:02;0.63;;;0.30;;
64031;SDS011;50278;47.796;11.968;2022-08-21T01:54:29;0.95;;;0.32;;
64031;SDS011;50278;47.796;11.968;2022-08-21T01:56:56;1.58;;;0.30;;
64031;SDS011;50278;47.796;11.968;2022-08-21T01:59:23;0.73;;;0.30;;
64031;SDS011;50278;47.796;11.968;2022-08-21T02:01:50;0.55;;;0.30;;
64031;SDS011;50278;47.796;11.968;2022-08-21T02:04:15;0.98;;;0.35;;
64031;SDS011;50278;47.796;11.968;2022-08-21T02:06:41;0.60;;;0.35;;
64031;SDS011;50278;47.796;11.968;2022-08-21T02:09:07;0.60;;;0.30;;
64031;SDS011;50278;47.796;11.968;2022-08-21T02:11:34;0.82;;;0.32;;
64031;SDS011;50278;47.796;11.968;2022-08-21T02:14:01;1.23;;;0.30;;
64031;SDS011;50278;47.796;11.968;2022-08-21T02:16:27;0.40;;;0.30;;
64031;SDS011;50278;47.796;11.968;2022-08-21T02:18:53;0.32;;;0.22;;
64031;SDS011;50278;47.796;11.968;2022-08-21T02:21:18;0.40;;;0.30;;
64031;SDS011;50278;47.796;11.968;2022-08-21T02:23:44;0.57;;;0.20;;
64031;SDS011;50278;47.796;11.968;2022-08-21T02:26:10;0.55;;;0.40;;
64031;SDS011;50278;47.796;11.968;2022-08-21T02:28:38;2.20;;;0.30;;
64031;SDS011;50278;47.796;11.968;2022-08-21T02:31:04;0.80;;;0.40;;
64031;SDS011;50278;47.796;11.968;2022-08-21T02:33:30;0.73;;;0.32;;
64031;SDS011;50278;47.796;11.968;2022-08-21T02:35:56;3.30;;;0.60;;
64031;SDS011;50278;47.796;11.968;2022-08-21T02:38:24;0.30;;;0.30;;
64031;SDS011;50278;47.796;11.968;2022-08-21T02:43:21;0.90;;;0.20;;
64031;SDS011;50278;47.796;11.968;2022-08-21T02:45:47;1.83;;;0.38;;
64031;SDS011;50278;47.796;11.968;2022-08-21T02:48:15;0.47;;;0.20;;
64031;SDS011;50278;47.796;11.968;2022-08-21T02:50:45;1.35;;;0.30;;
64031;SDS011;50278;47.796;11.968;2022-08-21T02:53:13;1.30;;;0.32;;
64031;SDS011;50278;47.796;11.968;2022-08-21T02:55:42;0.40;;;0.22;;
64031;SDS011;50278;47.796;11.968;2022-08-21T02:58:12;0.38;;;0.30;;
64031;SDS011;50278;47.796;11.968;2022-08-21T03:00:40;0.50;;;0.30;;
64031;SDS011;50278;47.796;11.968;2022-08-21T03:03:05;1.77;;;0.35;;
64031;SDS011;50278;47.796;11.968;2022-08-21T03:05:32;0.50;;;0.30;;
64031;SDS011;50278;47.796;11.968;2022-08-21T03:08:00;0.47;;;0.38;;
64031;SDS011;50278;47.796;11.968;2022-08-21T03:10:27;0.85;;;0.30;;
64031;SDS011;50278;47.796;11.968;2022-08-21T03:12:53;0.68;;;0.35;;
64031;SDS011;50278;47.796;11.968;2022-08-21T03:15:20;0.60;;;0.50;;
64031;SDS011;50278;47.796;11.968;2022-08-21T03:17:47;0.60;;;0.30;;
64031;SDS011;50278;47.796;11.968;2022-08-21T03:20:14;2.05;;;0.40;;
64031;SDS011;50278;47.796;11.968;2022-08-21T03:22:41;1.27;;;0.30;;
64031;SDS011;50278;47.796;11.968;2022-08-21T03:25:07;1.02;;;0.40;;
64031;SDS011;50278;47.796;11.968;2022-08-21T03:27:34;0.93;;;0.40;;
64031;SDS011;50278;47.796;11.968;2022-08-21T03:30:00;1.05;;;0.30;;
64031;SDS011;50278;47.796;11.968;2022-08-21T03:32:26;1.08;;;0.30;;
64031;SDS011;50278;47.796;11.968;2022-08-21T03:34:52;0.30;;;0.30;;
64031;SDS011;50278;47.796;11.968;2022-08-21T03:37:17;0.85;;;0.30;;
64031;SDS011;50278;47.796;11.968;2022-08-21T03:39:44;2.03;;;0.45;;
64031;SDS011;50278;47.796;11.968;2022-08-21T03:42:10;1.00;;;0.28;;
64031;SDS011;50278;47.796;11.968;2022-08-21T03:44:36;0.90;;;0.40;;
64031;SDS011;50278;47.796;11.968;2022-08-21T03:47:02;1.73;;;0.52;;
64031;SDS011;50278;47.796;11.968;2022-08-21T03:49:28;2.60;;;1.48;;
64031;SDS011;50278;47.796;11.968;2022-08-21T03:51:54;4.53;;;0.85;;
64031;SDS011;50278;47.796;11.968;2022-08-21T03:54:20;0.98;;;0.40;;
64031;SDS011;50278;47.796;11.968;2022-08-21T03:56:46;2.03;;;0.60;;
64031;SDS011;50278;47.796;11.968;2022-08-21T03:59:11;3.72;;;1.73;;
64031;SDS011;50278;47.796;11.968;2022-08-21T04:01:37;4.07;;;2.00;;
64031;SDS011;50278;47.796;11.968;2022-08-21T04:04:04;1.98;;;1.13;;
64031;SDS011;50278;47.796;11.968;2022-08-21T04:06:30;1.02;;;0.60;;
64031;SDS011;50278;47.796;11.968;2022-08-21T04:08:56;1.50;;;0.43;;
64031;SDS011;50278;47.796;11.968;2022-08-21T04:11:22;2.05;;;0.47;;
64031;SDS011;50278;47.796;11.968;2022-08-21T04:13:47;1.92;;;0.40;;
64031;SDS011;50278;47.796;11.968;2022-08-21T04:16:13;0.90;;;0.43;;
64031;SDS011;50278;47.796;11.968;2022-08-21T04:18:39;0.90;;;0.50;;
64031;SDS011;50278;47.796;11.968;2022-08-21T04:21:05;1.00;;;0.50;;
64031;SDS011;50278;47.796;11.968;2022-08-21T04:23:35;1.15;;;0.55;;
64031;SDS011;50278;47.796;11.968;2022-08-21T04:26:00;2.42;;;0.80;;
64031;SDS011;50278;47.796;11.968;2022-08-21T04:28:26;0.80;;;0.60;;
64031;SDS011;50278;47.796;11.968;2022-08-21T04:30:53;0.82;;;0.60;;
64031;SDS011;50278;47.796;11.968;2022-08-21T04:33:19;2.20;;;0.47;;
64031;SDS011;50278;47.796;11.968;2022-08-21T04:35:45;0.98;;;0.52;;
64031;SDS011;50278;47.796;11.968;2022-08-21T04:38:11;1.92;;;0.60;;
64031;SDS011;50278;47.796;11.968;2022-08-21T04:40:36;2.97;;;0.80;;
64031;SDS011;50278;47.796;11.968;2022-08-21T04:43:03;0.98;;;0.60;;
64031;SDS011;50278;47.796;11.968;2022-08-21T04:48:03;0.95;;;0.40;;
64031;SDS011;50278;47.796;11.968;2022-08-21T04:56:05;1.92;;;0.60;;
64031;SDS011;50278;47.796;11.968;2022-08-21T04:58:34;2.28;;;0.68;;
64031;SDS011;50278;47.796;11.968;2022-08-21T05:01:01;3.00;;;0.60;;
64031;SDS011;50278;47.796;11.968;2022-08-21T05:03:27;2.30;;;0.60;;
64031;SDS011;50278;47.796;11.968;2022-08-21T05:05:55;1.38;;;0.70;;
64031;SDS011;50278;47.796;11.968;2022-08-21T05:08:21;2.10;;;0.60;;
64031;SDS011;50278;47.796;11.968;2022-08-21T05:10:50;1.45;;;0.70;;
64031;SDS011;50278;47.796;11.968;2022-08-21T05:13:16;1.20;;;0.70;;
64031;SDS011;50278;47.796;11.968;2022-08-21T05:15:42;3.50;;;0.60;;
64031;SDS011;50278;47.796;11.968;2022-08-21T05:18:08;2.28;;;1.02;;
64031;SDS011;50278;47.796;11.968;2022-08-21T05:20:34;0.88;;;0.50;;
64031;SDS011;50278;47.796;11.968;2022-08-21T05:23:00;2.10;;;0.47;;
64031;SDS011;50278;47.796;11.968;2022-08-21T05:25:32;1.58;;;0.70;;
64031;SDS011;50278;47.796;11.968;2022-08-21T05:27:58;1.65;;;0.60;;
64031;SDS011;50278;47.796;11.968;2022-08-21T05:30:23;1.25;;;0.68;;
64031;SDS011;50278;47.796;11.968;2022-08-21T05:32:48;3.72;;;0.70;;
64031;SDS011;50278;47.796;11.968;2022-08-21T05:35:14;0.82;;;0.60;;
64031;SDS011;50278;47.796;11.968;2022-08-21T05:37:40;0.68;;;0.40;;
64031;SDS011;50278;47.796;11.968;2022-08-21T05:40:05;2.05;;;0.50;;
64031;SDS011;50278;47.796;11.968;2022-08-21T05:42:32;2.00;;;0.70;;
64031;SDS011;50278;47.796;11.968;2022-08-21T05:44:58;1.00;;;0.60;;
64031;SDS011;50278;47.796;11.968;2022-08-21T05:47:24;2.28;;;0.77;;
64031;SDS011;50278;47.796;11.968;2022-08-21T05:49:49;0.98;;;0.60;;
64031;SDS011;50278;47.796;11.968;2022-08-21T05:52:21;1.27;;;0.70;;
64031;SDS011;50278;47.796;11.968;2022-08-21T05:54:47;1.77;;;0.60;;
64031;SDS011;50278;47.796;11.968;2022-08-21T05:57:12;1.00;;;0.60;;
64031;SDS011;50278;47.796;11.968;2022-08-21T05:59:38;2.58;;;0.95;;
64031;SDS011;50278;47.796;11.968;2022-08-21T06:02:03;2.08;;;0.60;;
64031;SDS011;50278;47.796;11.968;2022-08-21T06:04:29;1.48;;;0.77;;
64031;SDS011;50278;47.796;11.968;2022-08-21T06:06:55;1.48;;;0.75;;
64031;SDS011;50278;47.796;11.968;2022-08-21T06:09:20;1.15;;;0.73;;
64031;SDS011;50278;47.796;11.968;2022-08-21T06:11:47;2.55;;;1.40;;
64031;SDS011;50278;47.796;11.968;2022-08-21T06:14:13;3.17;;;1.05;;
64031;SDS011;50278;47.796;11.968;2022-08-21T06:16:40;2.13;;;0.85;;
64031;SDS011;50278;47.796;11.968;2022-08-21T06:19:05;1.85;;;1.00;;
64031;SDS011;50278;47.796;11.968;2022-08-21T06:21:31;2.70;;;0.70;;
64031;SDS011;50278;47.796;11.968;2022-08-21T06:23:56;3.63;;;0.80;;
64031;SDS011;50278;47.796;11.968;2022-08-21T06:26:22;2.28;;;0.70;;
64031;SDS011;50278;47.796;11.968;2022-08-21T06:28:48;1.83;;;0.63;;
64031;SDS011;50278;47.796;11.968;2022-08-21T06:31:15;1.75;;;0.82;;
64031;SDS011;50278;47.796;11.968;2022-08-21T06:33:46;3.42;;;0.90;;
64031;SDS011;50278;47.796;11.968;2022-08-21T06:36:12;2.42;;;0.60;;
64031;SDS011;50278;47.796;11.968;2022-08-21T06:38:38;2.53;;;0.70;;
64031;SDS011;50278;47.796;11.968;2022-08-21T06:41:04;1.33;;;0.63;;
64031;SDS011;50278;47.796;11.968;2022-08-21T06:43:30;2.50;;;0.77;;
64031;SDS011;50278;47.796;11.968;2022-08-21T06:45:56;1.52;;;0.60;;
64031;SDS011;50278;47.796;11.968;2022-08-21T06:48:22;1.38;;;0.70;;
64031;SDS011;50278;47.796;11.968;2022-08-21T06:50:48;1.35;;;0.70;;
64031;SDS011;50278;47.796;11.968;2022-08-21T06:53:15;2.28;;;0.80;;
64031;SDS011;50278;47.796;11.968;2022-08-21T06:55:43;1.20;;;0.80;;
64031;SDS011;50278;47.796;11.968;2022-08-21T06:58:08;0.88;;;0.60;;
64031;SDS011;50278;47.796;11.968;2022-08-21T07:00:36;2.35;;;0.80;;
64031;SDS011;50278;47.796;11.968;2022-08-21T07:03:04;2.58;;;0.95;;
64031;SDS011;50278;47.796;11.968;2022-08-21T07:05:29;1.88;;;0.70;;
64031;SDS011;50278;47.796;11.968;2022-08-21T07:07:55;1.10;;;0.80;;
64031;SDS011;50278;47.796;11.968;2022-08-21T07:10:22;2.35;;;0.68;;
64031;SDS011;50278;47.796;11.968;2022-08-21T07:12:49;3.85;;;0.70;;
64031;SDS011;50278;47.796;11.968;2022-08-21T07:15:15;2.38;;;0.85;;
64031;SDS011;50278;47.796;11.968;2022-08-21T07:17:40;1.85;;;0.60;;
64031;SDS011;50278;47.796;11.968;2022-08-21T07:20:06;2.33;;;0.95;;
64031;SDS011;50278;47.796;11.968;2022-08-21T07:22:32;2.47;;;0.75;;
64031;SDS011;50278;47.796;11.968;2022-08-21T07:24:58;1.45;;;0.60;;
64031;SDS011;50278;47.796;11.968;2022-08-21T07:27:24;1.58;;;0.80;;
64031;SDS011;50278;47.796;11.968;2022-08-21T07:29:50;3.08;;;1.05;;
64031;SDS011;50278;47.796;11.968;2022-08-21T07:32:15;2.05;;;0.70;;
64031;SDS011;50278;47.796;11.968;2022-08-21T07:34:41;1.65;;;0.93;;
64031;SDS011;50278;47.796;11.968;2022-08-21T07:37:07;3.05;;;0.88;;
64031;SDS011;50278;47.796;11.968;2022-08-21T07:39:33;2.30;;;0.75;;
64031;SDS011;50278;47.796;11.968;2022-08-21T07:41:58;2.63;;;0.70;;
64031;SDS011;50278;47.796;11.968;2022-08-21T07:44:24;2.22;;;0.80;;
64031;SDS011;50278;47.796;11.968;2022-08-21T07:46:49;1.58;;;0.93;;
64031;SDS011;50278;47.796;11.968;2022-08-21T07:49:15;1.42;;;0.60;;
64031;SDS011;50278;47.796;11.968;2022-08-21T07:51:40;1.77;;;0.73;;
64031;SDS011;50278;47.796;11.968;2022-08-21T07:54:06;1.20;;;0.70;;
64031;SDS011;50278;47.796;11.968;2022-08-21T07:56:33;1.83;;;0.90;;
64031;SDS011;50278;47.796;11.968;2022-08-21T07:58:59;2.22;;;1.00;;
64031;SDS011;50278;47.796;11.968;2022-08-21T08:01:24;1.98;;;0.80;;
64031;SDS011;50278;47.796;11.968;2022-08-21T08:03:50;2.97;;;1.10;;
64031;SDS011;50278;47.796;11.968;2022-08-21T08:06:15;2.90;;;0.75;;
64031;SDS011;50278;47.796;11.968;2022-08-21T08:08:43;2.95;;;0.98;;
64031;SDS011;50278;47.796;11.968;2022-08-21T08:11:09;1.23;;;0.60;;
64031;SDS011;50278;47.796;11.968;2022-08-21T08:13:39;1.70;;;0.80;;
64031;SDS011;50278;47.796;11.968;2022-08-21T08:16:06;3.33;;;0.80;;
64031;SDS011;50278;47.796;11.968;2022-08-21T08:18:32;2.83;;;0.90;;
64031;SDS011;50278;47.796;11.968;2022-08-21T08:20:57;2.83;;;0.68;;
64031;SDS011;50278;47.796;11.968;2022-08-21T08:23:22;2.15;;;0.80;;
64031;SDS011;50278;47.796;11.968;2022-08-21T08:25:48;1.75;;;0.60;;
64031;SDS011;50278;47.796;11.968;2022-08-21T08:28:14;1.90;;;0.70;;
64031;SDS011;50278;47.796;11.968;2022-08-21T08:30:40;1.38;;;0.77;;
64031;SDS011;50278;47.796;11.968;2022-08-21T08:33:05;2.22;;;0.80;;
64031;SDS011;50278;47.796;11.968;2022-08-21T08:35:31;3.72;;;0.80;;
64031;SDS011;50278;47.796;11.968;2022-08-21T08:37:56;1.33;;;0.70;;
64031;SDS011;50278;47.796;11.968;2022-08-21T08:42:54;1.42;;;0.68;;
64031;SDS011;50278;47.796;11.968;2022-08-21T08:45:20;1.55;;;0.60;;
64031;SDS011;50278;47.796;11.968;2022-08-21T08:47:55;2.45;;;0.63;;
64031;SDS011;50278;47.796;11.968;2022-08-21T08:50:47;2.75;;;0.82;;
64031;SDS011;50278;47.796;11.968;2022-08-21T08:53:19;1.95;;;0.80;;
64031;SDS011;50278;47.796;11.968;2022-08-21T08:55:52;1.30;;;0.60;;
64031;SDS011;50278;47.796;11.968;2022-08-21T08:58:27;1.83;;;0.70;;
64031;SDS011;50278;47.796;11.968;2022-08-21T09:00:59;1.17;;;0.75;;
64031;SDS011;50278;47.796;11.968;2022-08-21T09:03:26;2.08;;;0.60;;
64031;SDS011;50278;47.796;11.968;2022-08-21T09:11:25;1.23;;;0.68;;
64031;SDS011;50278;47.796;11.968;2022-08-21T09:27:34;1.17;;;0.77;;
64031;SDS011;50278;47.796;11.968;2022-08-21T09:30:01;1.73;;;0.70;;
64031;SDS011;50278;47.796;11.968;2022-08-21T09:32:29;1.30;;;0.88;;
64031;SDS011;50278;47.796;11.968;2022-08-21T09:37:22;2.35;;;0.65;;
64031;SDS011;50278;47.796;11.968;2022-08-21T09:39:48;1.90;;;0.73;;
64031;SDS011;50278;47.796;11.968;2022-08-21T09:42:20;1.27;;;0.40;;
64031;SDS011;50278;47.796;11.968;2022-08-21T09:44:48;2.03;;;0.70;;
64031;SDS011;50278;47.796;11.968;2022-08-21T09:47:13;2.45;;;0.60;;
64031;SDS011;50278;47.796;11.968;2022-08-21T09:49:44;1.50;;;0.70;;
64031;SDS011;50278;47.796;11.968;2022-08-21T09:52:19;2.00;;;0.68;;
64031;SDS011;50278;47.796;11.968;2022-08-21T09:54:49;0.98;;;0.63;;
64031;SDS011;50278;47.796;11.968;2022-08-21T09:57:23;1.98;;;0.70;;
64031;SDS011;50278;47.796;11.968;2022-08-21T10:00:15;1.45;;;0.90;;
64031;SDS011;50278;47.796;11.968;2022-08-21T10:02:45;1.63;;;0.40;;
64031;SDS011;50278;47.796;11.968;2022-08-21T10:05:18;1.55;;;0.52;;
64031;SDS011;50278;47.796;11.968;2022-08-21T10:07:50;1.02;;;0.65;;
64031;SDS011;50278;47.796;11.968;2022-08-21T10:10:17;1.40;;;0.80;;
64031;SDS011;50278;47.796;11.968;2022-08-21T10:12:59;1.95;;;0.70;;
64031;SDS011;50278;47.796;11.968;2022-08-21T10:21:27;3.13;;;0.95;;
64031;SDS011;50278;47.796;11.968;2022-08-21T10:34:49;2.13;;;0.90;;
64031;SDS011;50278;47.796;11.968;2022-08-21T10:49:37;1.88;;;0.90;;
64031;SDS011;50278;47.796;11.968;2022-08-21T10:54:05;2.13;;;0.80;;
64031;SDS011;50278;47.796;11.968;2022-08-21T10:56:43;1.90;;;0.93;;
64031;SDS011;50278;47.796;11.968;2022-08-21T11:09:37;3.53;;;1.35;;
64031;SDS011;50278;47.796;11.968;2022-08-21T11:12:47;1.45;;;0.93;;
64031;SDS011;50278;47.796;11.968;2022-08-21T11:21:26;2.90;;;1.05;;
64031;SDS011;50278;47.796;11.968;2022-08-21T11:26:54;1.33;;;0.90;;
64031;SDS011;50278;47.796;11.968;2022-08-21T11:29:44;1.45;;;0.98;;
64031;SDS011;50278;47.796;11.968;2022-08-21T11:32:29;2.97;;;1.02;;
64031;SDS011;50278;47.796;11.968;2022-08-21T11:38:00;1.92;;;1.15;;
64031;SDS011;50278;47.796;11.968;2022-08-21T11:43:35;1.08;;;0.80;;
64031;SDS011;50278;47.796;11.968;2022-08-21T11:51:53;1.08;;;0.73;;
64031;SDS011;50278;47.796;11.968;2022-08-21T11:54:40;1.63;;;1.05;;
64031;SDS011;50278;47.796;11.968;2022-08-21T11:57:23;1.98;;;0.95;;
64031;SDS011;50278;47.796;11.968;2022-08-21T12:00:04;2.72;;;1.10;;
64031;SDS011;50278;47.796;11.968;2022-08-21T12:02:48;1.75;;;1.15;;
64031;SDS011;50278;47.796;11.968;2022-08-21T12:05:31;1.30;;;1.00;;
64031;SDS011;50278;47.796;11.968;2022-08-21T12:10:40;1.58;;;1.08;;
64031;SDS011;50278;47.796;11.968;2022-08-21T12:13:29;1.73;;;1.17;;
64031;SDS011;50278;47.796;11.968;2022-08-21T12:17:03;4.05;;;1.05;;
64031;SDS011;50278;47.796;11.968;2022-08-21T12:22:09;2.22;;;1.15;;
64031;SDS011;50278;47.796;11.968;2022-08-21T12:29:55;2.75;;;1.15;;
64031;SDS011;50278;47.796;11.968;2022-08-21T12:34:57;3.33;;;1.05;;
64031;SDS011;50278;47.796;11.968;2022-08-21T12:37:41;1.45;;;0.82;;
64031;SDS011;50278;47.796;11.968;2022-08-21T12:42:43;1.92;;;1.23;;
64031;SDS011;50278;47.796;11.968;2022-08-21T12:45:17;1.20;;;0.90;;
64031;SDS011;50278;47.796;11.968;2022-08-21T12:47:47;2.45;;;1.17;;
64031;SDS011;50278;47.796;11.968;2022-08-21T12:50:20;1.00;;;0.90;;
64031;SDS011;50278;47.796;11.968;2022-08-21T12:52:55;1.55;;;0.90;;
64031;SDS011;50278;47.796;11.968;2022-08-21T12:55:29;2.88;;;0.82;;
64031;SDS011;50278;47.796;11.968;2022-08-21T12:57:56;1.13;;;0.88;;
64031;SDS011;50278;47.796;11.968;2022-08-21T13:00:23;4.68;;;0.98;;
64031;SDS011;50278;47.796;11.968;2022-08-21T13:02:51;1.83;;;1.10;;
64031;SDS011;50278;47.796;11.968;2022-08-21T13:07:53;1.10;;;0.88;;
64031;SDS011;50278;47.796;11.968;2022-08-21T13:10:23;1.40;;;1.20;;
64031;SDS011;50278;47.796;11.968;2022-08-21T13:12:54;1.48;;;1.00;;
64031;SDS011;50278;47.796;11.968;2022-08-21T13:15:29;1.60;;;1.17;;
64031;SDS011;50278;47.796;11.968;2022-08-21T13:17:57;1.73;;;1.63;;
64031;SDS011;50278;47.796;11.968;2022-08-21T13:20:34;2.03;;;1.25;;
64031;SDS011;50278;47.796;11.968;2022-08-21T13:23:06;1.80;;;1.23;;
64031;SDS011;50278;47.796;11.968;2022-08-21T13:25:48;1.58;;;1.00;;
64031;SDS011;50278;47.796;11.968;2022-08-21T13:28:13;2.95;;;1.20;;
64031;SDS011;50278;47.796;11.968;2022-08-21T13:30:41;3.33;;;1.73;;
64031;SDS011;50278;47.796;11.968;2022-08-21T13:33:09;1.50;;;1.10;;
64031;SDS011;50278;47.796;11.968;2022-08-21T13:38:15;1.98;;;1.10;;
64031;SDS011;50278;47.796;11.968;2022-08-21T13:40:51;1.20;;;1.00;;
64031;SDS011;50278;47.796;11.968;2022-08-21T13:43:24;1.45;;;1.00;;
64031;SDS011;50278;47.796;11.968;2022-08-21T13:45:55;1.45;;;0.95;;
64031;SDS011;50278;47.796;11.968;2022-08-21T13:48:22;1.77;;;0.90;;
64031;SDS011;50278;47.796;11.968;2022-08-21T13:50:51;5.05;;;1.30;;
64031;SDS011;50278;47.796;11.968;2022-08-21T13:53:28;1.38;;;0.90;;
64031;SDS011;50278;47.796;11.968;2022-08-21T13:58:48;1.50;;;1.02;;
64031;SDS011;50278;47.796;11.968;2022-08-21T14:01:25;2.60;;;1.15;;
64031;SDS011;50278;47.796;11.968;2022-08-21T14:07:15;2.25;;;1.10;;
64031;SDS011;50278;47.796;11.968;2022-08-21T14:09:44;1.13;;;0.98;;
64031;SDS011;50278;47.796;11.968;2022-08-21T14:12:15;3.38;;;1.30;;
64031;SDS011;50278;47.796;11.968;2022-08-21T14:14:44;1.70;;;1.02;;
64031;SDS011;50278;47.796;11.968;2022-08-21T14:17:11;1.88;;;1.10;;
64031;SDS011;50278;47.796;11.968;2022-08-21T14:19:40;1.90;;;1.10;;
64031;SDS011;50278;47.796;11.968;2022-08-21T14:25:01;2.00;;;1.00;;
64031;SDS011;50278;47.796;11.968;2022-08-21T14:27:42;1.27;;;0.80;;
64031;SDS011;50278;47.796;11.968;2022-08-21T14:33:00;1.63;;;0.90;;
64031;SDS011;50278;47.796;11.968;2022-08-21T14:35:27;2.25;;;0.98;;
64031;SDS011;50278;47.796;11.968;2022-08-21T14:37:53;2.58;;;1.05;;
64031;SDS011;50278;47.796;11.968;2022-08-21T14:40:19;1.70;;;0.82;;
64031;SDS011;50278;47.796;11.968;2022-08-21T14:42:46;1.83;;;1.05;;
64031;SDS011;50278;47.796;11.968;2022-08-21T14:47:41;3.75;;;1.00;;
64031;SDS011;50278;47.796;11.968;2022-08-21T14:50:08;1.45;;;1.00;;
64031;SDS011;50278;47.796;11.968;2022-08-21T14:52:34;2.63;;;1.00;;
64031;SDS011;50278;47.796;11.968;2022-08-21T14:55:02;1.10;;;1.00;;
64031;SDS011;50278;47.796;11.968;2022-08-21T14:57:29;1.77;;;1.00;;
64031;SDS011;50278;47.796;11.968;2022-08-21T14:59:55;3.15;;;1.10;;
64031;SDS011;50278;47.796;11.968;2022-08-21T15:02:21;1.65;;;1.10;;
64031;SDS011;50278;47.796;11.968;2022-08-21T15:04:46;1.50;;;1.17;;
64031;SDS011;50278;47.796;11.968;2022-08-21T15:07:12;1.42;;;0.93;;
64031;SDS011;50278;47.796;11.968;2022-08-21T15:09:37;2.70;;;1.10;;
64031;SDS011;50278;47.796;11.968;2022-08-21T15:12:03;4.93;;;1.00;;
64031;SDS011;50278;47.796;11.968;2022-08-21T15:14:31;2.15;;;1.10;;
64031;SDS011;50278;47.796;11.968;2022-08-21T15:16:58;1.98;;;1.10;;
64031;SDS011;50278;47.796;11.968;2022-08-21T15:19:24;1.00;;;0.80;;
64031;SDS011;50278;47.796;11.968;2022-08-21T15:21:50;1.98;;;1.02;;
64031;SDS011;50278;47.796;11.968;2022-08-21T15:24:16;1.40;;;0.95;;
64031;SDS011;50278;47.796;11.968;2022-08-21T15:26:41;1.30;;;1.00;;
64031;SDS011;50278;47.796;11.968;2022-08-21T15:29:09;1.75;;;1.00;;
64031;SDS011;50278;47.796;11.968;2022-08-21T15:31:35;1.25;;;1.15;;
64031;SDS011;50278;47.796;11.968;2022-08-21T15:34:01;1.02;;;0.85;;
64031;SDS011;50278;47.796;11.968;2022-08-21T15:36:27;1.58;;;1.13;;
64031;SDS011;50278;47.796;11.968;2022-08-21T15:38:52;1.23;;;1.00;;
64031;SDS011;50278;47.796;11.968;2022-08-21T15:41:18;1.70;;;1.08;;
64031;SDS011;50278;47.796;11.968;2022-08-21T15:43:50;1.83;;;1.00;;
64031;SDS011;50278;47.796;11.968;2022-08-21T15:46:18;2.30;;;1.10;;
64031;SDS011;50278;47.796;11.968;2022-08-21T15:48:45;3.03;;;1.02;;
64031;SDS011;50278;47.796;11.968;2022-08-21T15:51:11;1.83;;;1.17;;
64031;SDS011;50278;47.796;11.968;2022-08-21T15:53:38;2.33;;;0.80;;
64031;SDS011;50278;47.796;11.968;2022-08-21T15:56:05;1.05;;;0.93;;
64031;SDS011;50278;47.796;11.968;2022-08-21T15:58:34;1.25;;;0.95;;
64031;SDS011;50278;47.796;11.968;2022-08-21T16:01:00;1.48;;;0.90;;
64031;SDS011;50278;47.796;11.968;2022-08-21T16:03:26;1.10;;;1.00;;
64031;SDS011;50278;47.796;11.968;2022-08-21T16:05:53;1.67;;;1.10;;
64031;SDS011;50278;47.796;11.968;2022-08-21T16:08:20;1.10;;;0.88;;
64031;SDS011;50278;47.796;11.968;2022-08-21T16:10:47;1.60;;;1.05;;
64031;SDS011;50278;47.796;11.968;2022-08-21T16:13:25;1.33;;;1.23;;
64031;SDS011;50278;47.796;11.968;2022-08-21T16:15:54;1.50;;;0.90;;
64031;SDS011;50278;47.796;11.968;2022-08-21T16:18:19;1.30;;;0.80;;
64031;SDS011;50278;47.796;11.968;2022-08-21T16:20:47;1.55;;;1.00;;
64031;SDS011;50278;47.796;11.968;2022-08-21T16:23:13;1.55;;;1.13;;
64031;SDS011;50278;47.796;11.968;2022-08-21T16:25:39;1.55;;;1.13;;
64031;SDS011;50278;47.796;11.968;2022-08-21T16:28:07;1.35;;;1.05;;
64031;SDS011;50278;47.796;11.968;2022-08-21T16:30:34;4.25;;;1.10;;
64031;SDS011;50278;47.796;11.968;2022-08-21T16:33:00;4.45;;;1.27;;
64031;SDS011;50278;47.796;11.968;2022-08-21T16:35:27;2.15;;;1.05;;
64031;SDS011;50278;47.796;11.968;2022-08-21T16:37:53;1.30;;;0.93;;
64031;SDS011;50278;47.796;11.968;2022-08-21T16:40:20;1.50;;;1.05;;
64031;SDS011;50278;47.796;11.968;2022-08-21T16:42:51;1.60;;;1.10;;
64031;SDS011;50278;47.796;11.968;2022-08-21T16:45:18;1.85;;;1.33;;
64031;SDS011;50278;47.796;11.968;2022-08-21T16:47:45;1.55;;;1.25;;
64031;SDS011;50278;47.796;11.968;2022-08-21T16:50:12;1.20;;;1.00;;
64031;SDS011;50278;47.796;11.968;2022-08-21T16:52:41;1.20;;;1.10;;
64031;SDS011;50278;47.796;11.968;2022-08-21T16:55:07;1.55;;;1.05;;